< Typhoon 195524 1955 Season Typhoon 195526 >
Typhoon 195525 (NORA)
General InformationTrack Information on Google Maps || Disaster Info.ResourceGoogle EarthGE AnimationAtom FeedGeoJSON
Detalied Best Track (Time Zone = UTC)
Year Month Day Hour Lat. Long. Pressure (hPa) Wind (kt) Class Image Chart
1955 10 7 00 19.2 134.1 1000 0 9 -- Chart
1955 10 7 06 19.6 134.6 995 0 9 -- Chart
1955 10 7 12 20.0 135.1 995 0 9 -- Chart
1955 10 7 18 20.6 135.5 990 0 9 -- Chart
1955 10 8 00 21.2 135.6 985 0 9 -- Chart
1955 10 8 06 21.5 135.5 985 0 9 -- Chart
1955 10 8 12 22.1 135.5 985 0 9 -- Chart
1955 10 8 18 22.9 135.6 985 0 9 -- Chart
1955 10 9 00 23.9 136.0 985 0 9 -- Chart
1955 10 9 06 24.8 135.9 980 0 9 -- Chart
1955 10 9 12 25.5 136.2 980 0 9 -- Chart
1955 10 9 18 26.5 136.3 975 0 9 -- Chart
1955 10 10 00 27.5 136.0 975 0 9 -- Chart
1955 10 10 06 28.5 136.4 975 0 9 -- Chart
1955 10 10 12 30.0 137.0 970 0 9 -- Chart
1955 10 10 18 31.4 137.6 970 0 9 -- Chart
1955 10 11 00 33.1 138.7 975 0 9 -- Chart
1955 10 11 06 35.3 141.5 975 0 9 -- Chart
1955 10 11 12 38.6 144.0 970 0 9 -- Chart
1955 10 11 18 42.2 146.9 970 0 9 -- Chart
1955 10 12 00 46.5 152.0 970 0 9 -- Chart
1955 10 12 06 49.0 155.5 965 0 9 -- Chart
1955 10 12 12 50.5 162.0 965 0 9 -- Chart
1955 10 12 18 51.5 166.0 965 0 9 -- Chart
1955 10 13 00 52.0 170.0 960 0 9 -- Chart
1955 10 13 06 52.8 174.0 955 0 9 -- Chart
1955 10 13 12 53.5 178.5 955 0 9 -- Chart
1955 10 13 18 54.2 184.0 955 0 9 -- Chart
Japan Meteorological Agency Best Track Data | Correction Date : 1991-07-16
< Typhoon 195524 1955 Season Typhoon 195526 >

Help